x

Columbia River Bar - 20nm West Of Columbia River Mouth (46029) Wave Buoy

1:50am - Sun 31st Jul 2016 All times are PDT. -7 hours from GMT.

  • Sig Wave height 8.2ft
  • Swell Direction
  • Peak Period 10s
  • Average Period 7s
  • Wind
    20mph, 22mph gusts
  • Sea Temp 59°f
  • 空気 Temp 60°f
  • Sea Pressure 1017.7mb
  • Columbia River Bar - 20nm West Of Columbia River Mouth
  • Columbia River Bar - 20nm West Of Columbia River Mouth

More Historic Weather Station data

Upgrade to MSW Pro to gain access to the past 30 days of data for over 8000 Wavebouys and Weather Stations around the globe.

Join Pro

Comparision Forecast

View Surf forecast
   
Sun 07/31 1:50am 8ft 10s 7s 20 22 mph 1017.7mb 59f 60f
12:50am 9ft 10s 7s 16 18 mph 1017.8mb 58f 60f
Sat 07/30 11:50pm 8.5ft 9s 7s 18 20 mph 1018mb 59f 60f
10:50pm 9ft 9s 7s 18 22 mph 1017.9mb 59f 60f
8:50pm 9ft 10s 7s 18 20 mph 1017.6mb 59f 60f
7:50pm 10.5ft 10s 8s 16 20 mph 1017.8mb 59f 60f
6:50pm 10ft 10s 7s 16 18 mph 1017.9mb 59f 60f
5:50pm 11ft 10s 8s 13 18 mph 1018.4mb 59f 60f
4:50pm 11ft 11s 8s 16 20 mph 1018.5mb 59f 60f
3:50pm 11ft 10s 8s 16 18 mph 1018.7mb 59f 60f
2:50pm 11ft 11s 8s 16 20 mph 1018.7mb 59f 60f
1:50pm 11ft 11s 8s 18 20 mph 1018.4mb 59f 60f
12:50pm 11.5ft 11s 8s 16 18 mph 1018.5mb 58f 60f
11:50am 11ft 11s 8s 16 22 mph 1018.1mb 58f 60f
10:50am 11ft 11s 8s 13 18 mph 1017.8mb 58f 60f
9:50am 11ft 11s 8s 13 18 mph 1017.5mb 58f 60f
8:50am 9.5ft 11s 7s 13 18 mph 1017.2mb 58f 60f
7:50am 10.5ft 11s 8s 16 20 mph 1016.8mb 58f 60f
6:50am 10ft 10s 7s 13 20 mph 1016.6mb 58f 60f
5:50am 9.5ft 9s 7s 16 20 mph 1016.4mb 58f 60f
4:50am 9ft 10s 7s 18 22 mph 1016.3mb 57f 60f
3:50am 9.5ft 10s 7s 18 22 mph 1016.4mb 57f 59f
2:50am 10ft 10s 7s 18 22 mph 1016.4mb 57f 59f
1:50am 9ft 9s 7s 16 20 mph 1016.7mb 57f 59f
12:50am 9.5ft 9s 7s 18 22 mph 1016.7mb 57f 59f
Fri 07/29 11:50pm 9.5ft 9s 7s 18 22 mph 1016.6mb 57f 60f
10:50pm 8.5ft 9s 7s 18 22 mph 1016.9mb 58f 60f
9:50pm 8.5ft 8s 7s 18 22 mph 1016.8mb 58f 60f
8:50pm 8.5ft 9s 7s 18 22 mph 1016.6mb 59f 60f
7:50pm 7ft 9s 6s 18 20 mph 1016.7mb 59f 61f
6:50pm 7ft 9s 6s 20 25 mph 1016.8mb 59f 61f
5:50pm 6.5ft 9s 6s 18 22 mph 1016.9mb 59f 61f
4:50pm 6ft 9s 6s 18 22 mph 1017.1mb 59f 61f
3:50pm 6.5ft 9s 6s 18 22 mph 1017.5mb 59f 61f
2:50pm 6ft 8s 6s 16 18 mph 1017.5mb 60f 61f
1:50pm 6ft 8s 6s 13 16 mph 1017.8mb 59f 61f
12:50pm 6.5ft 8s 6s 11 16 mph 1017.7mb 58f 60f
11:50am 7ft 8s 6s 11 16 mph 1017.9mb 58f 60f
10:50am 7.5ft 8s 6s 16 20 mph 1017.7mb 58f 60f
9:50am 7ft 8s 6s 18 20 mph 1017.9mb 58f 60f
8:50am 7ft 8s 6s 13 18 mph 1017.9mb 58f 60f
7:50am 6ft 8s 6s 16 18 mph 1017.9mb 58f 60f
6:50am 6ft 8s 6s 16 18 mph 1017.8mb 58f 60f
5:50am 5.5ft 8s 6s 16 20 mph 1017.7mb 58f 60f
4:50am 6ft 8s 6s 18 20 mph 1017.9mb 58f 60f
3:50am 6ft 8s 6s 18 20 mph 1017.9mb 58f 61f
2:50am 5.5ft 8s 6s 13 16 mph 1018.4mb 58f 61f
1:50am 6ft 8s 6s 16 18 mph 1018.4mb 59f 61f
12:50am 6ft 8s 5s 18 22 mph 1018.2mb 59f 61f
Thu 07/28 11:50pm 6.5ft 8s 6s 18 22 mph 1018.4mb 59f 61f
10:50pm 6.5ft 8s 6s 20 25 mph 1018.5mb 59f 61f
9:50pm 7ft 8s 6s 18 22 mph 1018.6mb 59f 61f
8:50pm 7ft 8s 6s 18 22 mph 1018.3mb 59f 60f
7:50pm 7ft 8s 6s 20 25 mph 1018.4mb 60f 60f
6:50pm 6ft 8s 5s 20 25 mph 1018.6mb 60f 61f
5:50pm 5ft 8s 5s 20 25 mph 1018.9mb 60f 61f
3:50pm 5ft 8s 6s 16 20 mph 1019.6mb 60f 61f
2:50pm 5.5ft 8s 6s 16 20 mph 1020mb 60f 61f
1:50pm 6ft 8s 6s 11 13 mph 1020.7mb 59f 60f
12:50pm 6.5ft 8s 6s 18 20 mph 1020.9mb 58f 61f
10:50am 7ft 8s 6s 16 18 mph 1021.1mb 59f 60f
9:50am 6.5ft 8s 6s 16 18 mph 1021.4mb 60f 60f
8:50am 6ft 8s 6s 18 20 mph 1021.3mb 60f 60f
7:50am 6ft 8s 6s 16 22 mph 1021.4mb 59f 59f
6:50am 6ft 8s 5s 18 20 mph 1021.3mb 60f 59f
5:50am 6ft 6s 5s 18 22 mph 1021.1mb 60f 59f
4:50am 5.5ft 7s 5s 18 22 mph 1021.1mb 60f 60f
3:50am 6ft 8s 5s 20 25 mph 1021.2mb 60f 60f
2:50am 5.5ft 8s 5s 20 27 mph 1020.8mb 61f 60f
1:50am 5.5ft 8s 5s 18 22 mph 1021.1mb 61f 60f
12:50am 6ft 7s 5s 18 20 mph 1021.3mb 61f 61f
Wed 07/27 11:50pm 6ft 8s 5s 20 25 mph 1021.5mb 61f 61f
10:50pm 6.5ft 8s 6s 18 22 mph 1021.7mb 61f 61f
9:50pm 6ft 8s 5s 20 25 mph 1021.2mb 61f 61f
8:50pm 7ft 8s 6s 20 25 mph 1020.8mb 61f 61f
7:50pm 6ft 8s 5s 18 22 mph 1020.7mb 61f 61f
6:50pm 6ft 8s 6s 20 25 mph 1021.1mb 61f 61f
5:50pm 5.5ft 8s 6s 20 22 mph 1021.2mb 61f 61f
4:50pm 5.5ft 8s 5s 18 22 mph 1021.6mb 61f 61f
3:50pm 5ft 8s 6s 18 22 mph 1021.6mb 62f 61f
2:50pm 6ft 8s 5s 18 20 mph 1021.8mb 60f 60f
1:50pm 6ft 8s 5s 18 20 mph 1022mb 60f 60f
12:50pm 5.5ft 7s 6s 16 20 mph 1022.2mb 60f 60f
11:50am 6ft 8s 6s 16 18 mph 1022.4mb 60f 61f
10:50am 5.5ft 8s 5s 9 11 mph 1022.2mb 59f 61f